sensor_id;sensor_type;location;lat;lon;timestamp;P1;durP1;ratioP1;P2;durP2;ratioP2
75007;SDS011;63554;48.940;12.050;2023-03-05T00:03:21;3.88;;;3.22;;
75007;SDS011;63554;48.940;12.050;2023-03-05T00:07:24;10.88;;;7.50;;
75007;SDS011;63554;48.940;12.050;2023-03-05T00:11:27;5.03;;;3.15;;
75007;SDS011;63554;48.940;12.050;2023-03-05T00:15:30;2.92;;;2.13;;
75007;SDS011;63554;48.940;12.050;2023-03-05T00:19:34;3.72;;;2.90;;
75007;SDS011;63554;48.940;12.050;2023-03-05T00:23:37;4.75;;;2.72;;
75007;SDS011;63554;48.940;12.050;2023-03-05T00:27:40;10.52;;;4.82;;
75007;SDS011;63554;48.940;12.050;2023-03-05T00:31:42;6.07;;;3.95;;
75007;SDS011;63554;48.940;12.050;2023-03-05T00:35:46;5.93;;;4.30;;
75007;SDS011;63554;48.940;12.050;2023-03-05T00:39:49;4.57;;;3.78;;
75007;SDS011;63554;48.940;12.050;2023-03-05T00:43:52;8.65;;;4.68;;
75007;SDS011;63554;48.940;12.050;2023-03-05T00:47:54;6.50;;;3.20;;
75007;SDS011;63554;48.940;12.050;2023-03-05T00:51:58;8.13;;;5.53;;
75007;SDS011;63554;48.940;12.050;2023-03-05T00:56:01;8.15;;;5.03;;
75007;SDS011;63554;48.940;12.050;2023-03-05T01:00:04;6.57;;;4.63;;
75007;SDS011;63554;48.940;12.050;2023-03-05T01:04:08;6.03;;;4.55;;
75007;SDS011;63554;48.940;12.050;2023-03-05T01:08:12;4.20;;;3.58;;
75007;SDS011;63554;48.940;12.050;2023-03-05T01:12:15;6.75;;;3.90;;
75007;SDS011;63554;48.940;12.050;2023-03-05T01:16:18;5.22;;;3.35;;
75007;SDS011;63554;48.940;12.050;2023-03-05T01:20:21;9.48;;;5.75;;
75007;SDS011;63554;48.940;12.050;2023-03-05T01:24:25;5.53;;;4.38;;
75007;SDS011;63554;48.940;12.050;2023-03-05T01:28:28;7.57;;;4.00;;
75007;SDS011;63554;48.940;12.050;2023-03-05T01:32:31;4.50;;;4.13;;
75007;SDS011;63554;48.940;12.050;2023-03-05T01:36:35;6.28;;;3.22;;
75007;SDS011;63554;48.940;12.050;2023-03-05T01:40:40;7.40;;;4.70;;
75007;SDS011;63554;48.940;12.050;2023-03-05T01:44:57;8.75;;;3.53;;
75007;SDS011;63554;48.940;12.050;2023-03-05T01:49:08;5.75;;;3.28;;
75007;SDS011;63554;48.940;12.050;2023-03-05T01:53:15;3.15;;;2.92;;
75007;SDS011;63554;48.940;12.050;2023-03-05T01:57:20;8.85;;;5.25;;
75007;SDS011;63554;48.940;12.050;2023-03-05T02:01:26;6.35;;;3.70;;
75007;SDS011;63554;48.940;12.050;2023-03-05T02:05:29;8.05;;;4.40;;
75007;SDS011;63554;48.940;12.050;2023-03-05T02:09:36;3.92;;;3.63;;
75007;SDS011;63554;48.940;12.050;2023-03-05T02:13:40;6.93;;;3.53;;
75007;SDS011;63554;48.940;12.050;2023-03-05T02:17:43;7.05;;;4.63;;
75007;SDS011;63554;48.940;12.050;2023-03-05T02:21:48;3.20;;;2.53;;
75007;SDS011;63554;48.940;12.050;2023-03-05T02:25:51;9.77;;;5.50;;
75007;SDS011;63554;48.940;12.050;2023-03-05T02:29:53;4.05;;;3.58;;
75007;SDS011;63554;48.940;12.050;2023-03-05T02:33:56;4.03;;;2.88;;
75007;SDS011;63554;48.940;12.050;2023-03-05T02:38:00;4.32;;;3.30;;
75007;SDS011;63554;48.940;12.050;2023-03-05T02:42:03;7.47;;;5.20;;
75007;SDS011;63554;48.940;12.050;2023-03-05T02:46:06;5.55;;;4.93;;
75007;SDS011;63554;48.940;12.050;2023-03-05T02:50:09;14.02;;;5.88;;
75007;SDS011;63554;48.940;12.050;2023-03-05T02:54:14;6.50;;;5.63;;
75007;SDS011;63554;48.940;12.050;2023-03-05T02:58:17;7.90;;;4.32;;
75007;SDS011;63554;48.940;12.050;2023-03-05T03:02:20;7.93;;;5.57;;
75007;SDS011;63554;48.940;12.050;2023-03-05T03:06:22;4.93;;;4.40;;
75007;SDS011;63554;48.940;12.050;2023-03-05T03:10:26;10.10;;;5.60;;
75007;SDS011;63554;48.940;12.050;2023-03-05T03:14:29;4.72;;;3.42;;
75007;SDS011;63554;48.940;12.050;2023-03-05T03:18:33;6.15;;;5.40;;
75007;SDS011;63554;48.940;12.050;2023-03-05T03:22:35;7.72;;;3.92;;
75007;SDS011;63554;48.940;12.050;2023-03-05T03:26:39;4.00;;;3.03;;
75007;SDS011;63554;48.940;12.050;2023-03-05T03:30:42;4.15;;;3.75;;
75007;SDS011;63554;48.940;12.050;2023-03-05T03:34:45;5.05;;;4.07;;
75007;SDS011;63554;48.940;12.050;2023-03-05T03:38:48;8.15;;;4.55;;
75007;SDS011;63554;48.940;12.050;2023-03-05T03:42:52;5.97;;;3.08;;
75007;SDS011;63554;48.940;12.050;2023-03-05T03:46:54;3.50;;;3.25;;
75007;SDS011;63554;48.940;12.050;2023-03-05T03:50:57;6.85;;;3.85;;
75007;SDS011;63554;48.940;12.050;2023-03-05T03:55:00;5.97;;;3.13;;
75007;SDS011;63554;48.940;12.050;2023-03-05T03:59:04;11.70;;;6.32;;
75007;SDS011;63554;48.940;12.050;2023-03-05T04:03:07;7.40;;;4.45;;
75007;SDS011;63554;48.940;12.050;2023-03-05T04:07:09;5.20;;;3.88;;
75007;SDS011;63554;48.940;12.050;2023-03-05T04:11:12;5.07;;;4.43;;
75007;SDS011;63554;48.940;12.050;2023-03-05T04:15:17;7.00;;;3.47;;
75007;SDS011;63554;48.940;12.050;2023-03-05T04:19:20;6.90;;;4.35;;
75007;SDS011;63554;48.940;12.050;2023-03-05T04:23:22;8.00;;;3.65;;
75007;SDS011;63554;48.940;12.050;2023-03-05T04:27:25;5.53;;;4.00;;
75007;SDS011;63554;48.940;12.050;2023-03-05T04:31:29;4.07;;;3.22;;
75007;SDS011;63554;48.940;12.050;2023-03-05T04:35:32;6.22;;;4.88;;
75007;SDS011;63554;48.940;12.050;2023-03-05T04:39:35;8.52;;;4.47;;
75007;SDS011;63554;48.940;12.050;2023-03-05T04:43:37;6.63;;;5.80;;
75007;SDS011;63554;48.940;12.050;2023-03-05T04:47:42;7.68;;;4.15;;
75007;SDS011;63554;48.940;12.050;2023-03-05T04:51:44;5.95;;;4.20;;
75007;SDS011;63554;48.940;12.050;2023-03-05T04:55:50;4.32;;;3.80;;
75007;SDS011;63554;48.940;12.050;2023-03-05T04:59:53;7.30;;;5.45;;
75007;SDS011;63554;48.940;12.050;2023-03-05T05:03:58;6.30;;;4.07;;
75007;SDS011;63554;48.940;12.050;2023-03-05T05:08:00;8.07;;;4.28;;
75007;SDS011;63554;48.940;12.050;2023-03-05T05:12:03;7.90;;;4.43;;
75007;SDS011;63554;48.940;12.050;2023-03-05T05:16:06;5.18;;;4.28;;
75007;SDS011;63554;48.940;12.050;2023-03-05T05:20:12;4.60;;;4.20;;
75007;SDS011;63554;48.940;12.050;2023-03-05T05:24:16;6.55;;;2.83;;
75007;SDS011;63554;48.940;12.050;2023-03-05T05:28:18;5.70;;;3.58;;
75007;SDS011;63554;48.940;12.050;2023-03-05T05:32:22;4.22;;;3.08;;
75007;SDS011;63554;48.940;12.050;2023-03-05T05:36:26;11.18;;;4.40;;
75007;SDS011;63554;48.940;12.050;2023-03-05T05:40:29;6.88;;;4.68;;
75007;SDS011;63554;48.940;12.050;2023-03-05T05:44:32;5.65;;;2.92;;
75007;SDS011;63554;48.940;12.050;2023-03-05T05:48:35;6.43;;;4.45;;
75007;SDS011;63554;48.940;12.050;2023-03-05T05:52:39;6.97;;;4.07;;
75007;SDS011;63554;48.940;12.050;2023-03-05T05:56:42;15.50;;;5.35;;
75007;SDS011;63554;48.940;12.050;2023-03-05T06:00:45;9.38;;;4.22;;
75007;SDS011;63554;48.940;12.050;2023-03-05T06:04:47;8.70;;;5.38;;
75007;SDS011;63554;48.940;12.050;2023-03-05T06:08:51;5.75;;;4.30;;
75007;SDS011;63554;48.940;12.050;2023-03-05T06:12:55;3.65;;;3.38;;
75007;SDS011;63554;48.940;12.050;2023-03-05T06:16:57;3.40;;;2.92;;
75007;SDS011;63554;48.940;12.050;2023-03-05T06:21:01;5.72;;;3.67;;
75007;SDS011;63554;48.940;12.050;2023-03-05T06:25:06;4.60;;;4.15;;
75007;SDS011;63554;48.940;12.050;2023-03-05T06:29:10;2.78;;;2.45;;
75007;SDS011;63554;48.940;12.050;2023-03-05T06:33:13;7.25;;;5.88;;
75007;SDS011;63554;48.940;12.050;2023-03-05T06:37:15;5.55;;;4.47;;
75007;SDS011;63554;48.940;12.050;2023-03-05T06:41:20;7.43;;;3.65;;
75007;SDS011;63554;48.940;12.050;2023-03-05T06:45:24;3.15;;;2.83;;
75007;SDS011;63554;48.940;12.050;2023-03-05T06:49:26;9.00;;;5.82;;
75007;SDS011;63554;48.940;12.050;2023-03-05T06:53:29;9.60;;;5.00;;
75007;SDS011;63554;48.940;12.050;2023-03-05T06:57:33;6.40;;;3.72;;
75007;SDS011;63554;48.940;12.050;2023-03-05T07:01:36;6.30;;;4.47;;
75007;SDS011;63554;48.940;12.050;2023-03-05T07:05:39;7.45;;;4.93;;
75007;SDS011;63554;48.940;12.050;2023-03-05T07:09:42;6.10;;;3.30;;
75007;SDS011;63554;48.940;12.050;2023-03-05T07:13:47;9.57;;;5.80;;
75007;SDS011;63554;48.940;12.050;2023-03-05T07:17:50;6.72;;;4.60;;
75007;SDS011;63554;48.940;12.050;2023-03-05T07:21:52;8.30;;;5.28;;
75007;SDS011;63554;48.940;12.050;2023-03-05T07:25:55;8.65;;;4.95;;
75007;SDS011;63554;48.940;12.050;2023-03-05T07:29:59;12.18;;;4.32;;
75007;SDS011;63554;48.940;12.050;2023-03-05T07:34:02;5.50;;;4.60;;
75007;SDS011;63554;48.940;12.050;2023-03-05T07:38:06;5.75;;;3.72;;
75007;SDS011;63554;48.940;12.050;2023-03-05T07:42:09;8.63;;;4.70;;
75007;SDS011;63554;48.940;12.050;2023-03-05T07:46:14;10.45;;;4.20;;
75007;SDS011;63554;48.940;12.050;2023-03-05T07:50:18;10.20;;;5.28;;
75007;SDS011;63554;48.940;12.050;2023-03-05T07:54:21;9.90;;;6.38;;
75007;SDS011;63554;48.940;12.050;2023-03-05T07:58:24;4.85;;;3.90;;
75007;SDS011;63554;48.940;12.050;2023-03-05T08:02:28;2.60;;;2.47;;
75007;SDS011;63554;48.940;12.050;2023-03-05T08:06:30;8.38;;;3.63;;
75007;SDS011;63554;48.940;12.050;2023-03-05T08:10:33;8.05;;;4.65;;
75007;SDS011;63554;48.940;12.050;2023-03-05T08:14:37;4.78;;;4.43;;
75007;SDS011;63554;48.940;12.050;2023-03-05T08:18:41;5.65;;;3.53;;
75007;SDS011;63554;48.940;12.050;2023-03-05T08:22:44;9.18;;;4.90;;
75007;SDS011;63554;48.940;12.050;2023-03-05T08:26:46;6.90;;;4.47;;
75007;SDS011;63554;48.940;12.050;2023-03-05T08:30:49;4.93;;;4.20;;
75007;SDS011;63554;48.940;12.050;2023-03-05T08:34:55;10.20;;;4.72;;
75007;SDS011;63554;48.940;12.050;2023-03-05T08:38:59;7.75;;;5.82;;
75007;SDS011;63554;48.940;12.050;2023-03-05T08:43:01;4.80;;;2.92;;
75007;SDS011;63554;48.940;12.050;2023-03-05T08:47:06;5.03;;;3.33;;
75007;SDS011;63554;48.940;12.050;2023-03-05T08:51:10;7.28;;;3.88;;
75007;SDS011;63554;48.940;12.050;2023-03-05T08:55:14;8.98;;;4.80;;
75007;SDS011;63554;48.940;12.050;2023-03-05T08:59:17;4.55;;;2.90;;
75007;SDS011;63554;48.940;12.050;2023-03-05T09:03:20;10.95;;;5.38;;
75007;SDS011;63554;48.940;12.050;2023-03-05T09:07:24;6.80;;;5.22;;
75007;SDS011;63554;48.940;12.050;2023-03-05T09:11:27;9.93;;;6.30;;
75007;SDS011;63554;48.940;12.050;2023-03-05T09:15:30;3.92;;;3.55;;
75007;SDS011;63554;48.940;12.050;2023-03-05T09:19:32;6.18;;;4.60;;
75007;SDS011;63554;48.940;12.050;2023-03-05T09:23:37;4.82;;;3.53;;
75007;SDS011;63554;48.940;12.050;2023-03-05T09:27:40;3.35;;;3.05;;
75007;SDS011;63554;48.940;12.050;2023-03-05T09:31:44;6.88;;;5.47;;
75007;SDS011;63554;48.940;12.050;2023-03-05T09:35:48;4.63;;;4.22;;
75007;SDS011;63554;48.940;12.050;2023-03-05T09:39:53;9.90;;;6.50;;
75007;SDS011;63554;48.940;12.050;2023-03-05T09:43:57;5.65;;;4.78;;
75007;SDS011;63554;48.940;12.050;2023-03-05T09:48:12;7.22;;;2.92;;
75007;SDS011;63554;48.940;12.050;2023-03-05T09:52:19;9.85;;;3.20;;
75007;SDS011;63554;48.940;12.050;2023-03-05T09:56:27;14.20;;;4.80;;
75007;SDS011;63554;48.940;12.050;2023-03-05T10:00:33;6.28;;;3.28;;
75007;SDS011;63554;48.940;12.050;2023-03-05T10:04:41;7.50;;;4.07;;
75007;SDS011;63554;48.940;12.050;2023-03-05T10:08:48;10.35;;;4.35;;
75007;SDS011;63554;48.940;12.050;2023-03-05T10:12:57;8.13;;;4.28;;
75007;SDS011;63554;48.940;12.050;2023-03-05T10:21:43;5.88;;;2.33;;
75007;SDS011;63554;48.940;12.050;2023-03-05T10:26:03;3.63;;;3.10;;
75007;SDS011;63554;48.940;12.050;2023-03-05T10:30:19;4.82;;;4.00;;
75007;SDS011;63554;48.940;12.050;2023-03-05T10:34:38;6.40;;;3.67;;
75007;SDS011;63554;48.940;12.050;2023-03-05T10:38:53;3.58;;;2.72;;
75007;SDS011;63554;48.940;12.050;2023-03-05T10:43:11;7.95;;;3.95;;
75007;SDS011;63554;48.940;12.050;2023-03-05T10:47:25;8.35;;;4.70;;
75007;SDS011;63554;48.940;12.050;2023-03-05T10:51:32;8.88;;;4.85;;
75007;SDS011;63554;48.940;12.050;2023-03-05T10:55:39;4.82;;;4.10;;
75007;SDS011;63554;48.940;12.050;2023-03-05T10:59:43;2.90;;;2.63;;
75007;SDS011;63554;48.940;12.050;2023-03-05T11:03:53;6.60;;;2.33;;
75007;SDS011;63554;48.940;12.050;2023-03-05T11:07:57;5.68;;;3.58;;
75007;SDS011;63554;48.940;12.050;2023-03-05T11:12:05;4.90;;;4.47;;
75007;SDS011;63554;48.940;12.050;2023-03-05T11:16:15;5.22;;;3.72;;
75007;SDS011;63554;48.940;12.050;2023-03-05T11:20:30;10.98;;;3.58;;
75007;SDS011;63554;48.940;12.050;2023-03-05T11:24:36;5.80;;;4.70;;
75007;SDS011;63554;48.940;12.050;2023-03-05T11:28:41;4.80;;;2.85;;
75007;SDS011;63554;48.940;12.050;2023-03-05T11:33:08;11.55;;;3.83;;
75007;SDS011;63554;48.940;12.050;2023-03-05T11:37:21;4.90;;;3.00;;
75007;SDS011;63554;48.940;12.050;2023-03-05T11:41:30;3.03;;;2.20;;
75007;SDS011;63554;48.940;12.050;2023-03-05T11:45:36;3.08;;;2.65;;
75007;SDS011;63554;48.940;12.050;2023-03-05T11:49:42;8.10;;;3.67;;
75007;SDS011;63554;48.940;12.050;2023-03-05T11:53:49;3.55;;;3.20;;
75007;SDS011;63554;48.940;12.050;2023-03-05T11:58:00;6.00;;;2.95;;
75007;SDS011;63554;48.940;12.050;2023-03-05T12:02:15;4.75;;;3.55;;
75007;SDS011;63554;48.940;12.050;2023-03-05T12:06:22;6.30;;;3.67;;
75007;SDS011;63554;48.940;12.050;2023-03-05T12:10:32;8.13;;;5.00;;
75007;SDS011;63554;48.940;12.050;2023-03-05T12:14:35;4.22;;;2.95;;
75007;SDS011;63554;48.940;12.050;2023-03-05T12:18:46;6.97;;;2.78;;
75007;SDS011;63554;48.940;12.050;2023-03-05T12:22:53;3.00;;;1.52;;
75007;SDS011;63554;48.940;12.050;2023-03-05T12:27:10;2.70;;;2.50;;
75007;SDS011;63554;48.940;12.050;2023-03-05T12:31:24;2.03;;;1.67;;
75007;SDS011;63554;48.940;12.050;2023-03-05T12:35:33;3.47;;;3.17;;
75007;SDS011;63554;48.940;12.050;2023-03-05T12:39:45;1.83;;;0.93;;
75007;SDS011;63554;48.940;12.050;2023-03-05T12:44:18;2.60;;;2.00;;
75007;SDS011;63554;48.940;12.050;2023-03-05T12:48:33;4.35;;;2.75;;
75007;SDS011;63554;48.940;12.050;2023-03-05T12:52:44;6.43;;;3.58;;
75007;SDS011;63554;48.940;12.050;2023-03-05T12:56:47;5.32;;;2.42;;
75007;SDS011;63554;48.940;12.050;2023-03-05T13:00:54;1.95;;;1.85;;
75007;SDS011;63554;48.940;12.050;2023-03-05T13:05:05;2.58;;;2.38;;
75007;SDS011;63554;48.940;12.050;2023-03-05T13:09:22;7.85;;;2.00;;
75007;SDS011;63554;48.940;12.050;2023-03-05T13:13:28;4.07;;;1.63;;
75007;SDS011;63554;48.940;12.050;2023-03-05T13:17:37;3.22;;;2.33;;
75007;SDS011;63554;48.940;12.050;2023-03-05T13:21:41;6.05;;;1.65;;
75007;SDS011;63554;48.940;12.050;2023-03-05T13:25:44;2.53;;;1.67;;
75007;SDS011;63554;48.940;12.050;2023-03-05T13:34:07;1.48;;;1.38;;
75007;SDS011;63554;48.940;12.050;2023-03-05T13:38:20;2.70;;;2.30;;
75007;SDS011;63554;48.940;12.050;2023-03-05T13:42:26;2.78;;;2.10;;
75007;SDS011;63554;48.940;12.050;2023-03-05T13:46:32;3.47;;;1.90;;
75007;SDS011;63554;48.940;12.050;2023-03-05T13:50:37;4.93;;;2.80;;
75007;SDS011;63554;48.940;12.050;2023-03-05T13:54:41;1.52;;;1.42;;
75007;SDS011;63554;48.940;12.050;2023-03-05T13:58:49;1.27;;;1.27;;
75007;SDS011;63554;48.940;12.050;2023-03-05T14:02:54;5.45;;;2.90;;
75007;SDS011;63554;48.940;12.050;2023-03-05T14:07:02;4.63;;;3.35;;
75007;SDS011;63554;48.940;12.050;2023-03-05T14:11:11;8.65;;;5.35;;
75007;SDS011;63554;48.940;12.050;2023-03-05T14:15:18;3.20;;;1.73;;
75007;SDS011;63554;48.940;12.050;2023-03-05T14:19:29;2.33;;;1.65;;
75007;SDS011;63554;48.940;12.050;2023-03-05T14:23:38;1.90;;;1.50;;
75007;SDS011;63554;48.940;12.050;2023-03-05T14:27:45;1.45;;;1.35;;
75007;SDS011;63554;48.940;12.050;2023-03-05T14:31:49;4.35;;;1.90;;
75007;SDS011;63554;48.940;12.050;2023-03-05T14:35:54;3.72;;;2.45;;
75007;SDS011;63554;48.940;12.050;2023-03-05T14:40:00;6.97;;;2.88;;
75007;SDS011;63554;48.940;12.050;2023-03-05T14:44:13;2.47;;;1.20;;
75007;SDS011;63554;48.940;12.050;2023-03-05T14:48:17;4.40;;;2.20;;
75007;SDS011;63554;48.940;12.050;2023-03-05T14:52:21;4.57;;;1.27;;
75007;SDS011;63554;48.940;12.050;2023-03-05T14:56:26;7.85;;;1.13;;
75007;SDS011;63554;48.940;12.050;2023-03-05T15:00:30;1.35;;;1.35;;
75007;SDS011;63554;48.940;12.050;2023-03-05T15:04:32;0.93;;;0.90;;
75007;SDS011;63554;48.940;12.050;2023-03-05T15:08:35;2.88;;;2.55;;
75007;SDS011;63554;48.940;12.050;2023-03-05T15:12:39;2.40;;;2.20;;
75007;SDS011;63554;48.940;12.050;2023-03-05T15:16:44;1.38;;;1.08;;
75007;SDS011;63554;48.940;12.050;2023-03-05T15:20:48;0.90;;;0.90;;
75007;SDS011;63554;48.940;12.050;2023-03-05T15:24:53;1.08;;;0.93;;
75007;SDS011;63554;48.940;12.050;2023-03-05T15:28:57;1.90;;;1.00;;
75007;SDS011;63554;48.940;12.050;2023-03-05T15:33:00;2.35;;;1.42;;
75007;SDS011;63554;48.940;12.050;2023-03-05T15:37:05;0.98;;;0.60;;
75007;SDS011;63554;48.940;12.050;2023-03-05T15:41:08;1.10;;;1.10;;
75007;SDS011;63554;48.940;12.050;2023-03-05T15:45:12;2.50;;;1.45;;
75007;SDS011;63554;48.940;12.050;2023-03-05T15:49:15;1.02;;;0.98;;
75007;SDS011;63554;48.940;12.050;2023-03-05T15:53:19;1.45;;;1.35;;
75007;SDS011;63554;48.940;12.050;2023-03-05T15:57:23;0.70;;;0.70;;
75007;SDS011;63554;48.940;12.050;2023-03-05T16:01:28;1.05;;;0.95;;
75007;SDS011;63554;48.940;12.050;2023-03-05T16:05:31;0.80;;;0.80;;
75007;SDS011;63554;48.940;12.050;2023-03-05T16:09:36;2.10;;;1.70;;
75007;SDS011;63554;48.940;12.050;2023-03-05T16:13:41;9.25;;;1.23;;
75007;SDS011;63554;48.940;12.050;2023-03-05T16:17:46;3.15;;;2.22;;
75007;SDS011;63554;48.940;12.050;2023-03-05T16:25:53;1.83;;;1.73;;
75007;SDS011;63554;48.940;12.050;2023-03-05T16:29:58;2.65;;;1.67;;
75007;SDS011;63554;48.940;12.050;2023-03-05T16:34:03;2.13;;;1.67;;
75007;SDS011;63554;48.940;12.050;2023-03-05T16:38:06;1.27;;;1.20;;
75007;SDS011;63554;48.940;12.050;2023-03-05T16:42:08;0.77;;;0.77;;
75007;SDS011;63554;48.940;12.050;2023-03-05T16:46:13;1.38;;;1.25;;
75007;SDS011;63554;48.940;12.050;2023-03-05T16:50:17;1.35;;;1.25;;
75007;SDS011;63554;48.940;12.050;2023-03-05T16:54:20;1.52;;;1.42;;
75007;SDS011;63554;48.940;12.050;2023-03-05T16:58:32;2.33;;;1.98;;
75007;SDS011;63554;48.940;12.050;2023-03-05T17:02:37;0.98;;;0.88;;
75007;SDS011;63554;48.940;12.050;2023-03-05T17:06:45;1.48;;;1.38;;
75007;SDS011;63554;48.940;12.050;2023-03-05T17:10:49;6.47;;;1.65;;
75007;SDS011;63554;48.940;12.050;2023-03-05T17:14:52;1.58;;;1.48;;
75007;SDS011;63554;48.940;12.050;2023-03-05T17:18:55;1.20;;;1.00;;
75007;SDS011;63554;48.940;12.050;2023-03-05T17:23:00;1.42;;;1.33;;
75007;SDS011;63554;48.940;12.050;2023-03-05T17:27:04;0.88;;;0.88;;
75007;SDS011;63554;48.940;12.050;2023-03-05T17:31:07;2.35;;;0.95;;
75007;SDS011;63554;48.940;12.050;2023-03-05T17:35:12;1.85;;;1.75;;
75007;SDS011;63554;48.940;12.050;2023-03-05T17:39:23;3.58;;;1.42;;
75007;SDS011;63554;48.940;12.050;2023-03-05T17:43:28;2.72;;;0.73;;
75007;SDS011;63554;48.940;12.050;2023-03-05T17:47:31;1.85;;;0.90;;
75007;SDS011;63554;48.940;12.050;2023-03-05T17:51:34;0.80;;;0.80;;
75007;SDS011;63554;48.940;12.050;2023-03-05T17:55:39;2.00;;;0.98;;
75007;SDS011;63554;48.940;12.050;2023-03-05T17:59:43;1.02;;;0.98;;
75007;SDS011;63554;48.940;12.050;2023-03-05T18:03:46;2.38;;;1.23;;
75007;SDS011;63554;48.940;12.050;2023-03-05T18:07:49;1.52;;;1.05;;
75007;SDS011;63554;48.940;12.050;2023-03-05T18:11:53;3.17;;;1.25;;
75007;SDS011;63554;48.940;12.050;2023-03-05T18:15:56;1.42;;;1.35;;
75007;SDS011;63554;48.940;12.050;2023-03-05T18:19:59;1.55;;;1.33;;
75007;SDS011;63554;48.940;12.050;2023-03-05T18:24:04;2.20;;;1.92;;
75007;SDS011;63554;48.940;12.050;2023-03-05T18:28:10;1.52;;;1.42;;
75007;SDS011;63554;48.940;12.050;2023-03-05T18:32:15;1.75;;;1.40;;
75007;SDS011;63554;48.940;12.050;2023-03-05T18:36:18;1.85;;;1.67;;
75007;SDS011;63554;48.940;12.050;2023-03-05T18:40:21;1.30;;;1.20;;
75007;SDS011;63554;48.940;12.050;2023-03-05T18:44:32;2.30;;;1.20;;
75007;SDS011;63554;48.940;12.050;2023-03-05T18:48:36;1.73;;;1.27;;
75007;SDS011;63554;48.940;12.050;2023-03-05T18:52:39;3.78;;;1.80;;
75007;SDS011;63554;48.940;12.050;2023-03-05T18:56:42;5.90;;;1.90;;
75007;SDS011;63554;48.940;12.050;2023-03-05T19:00:47;3.15;;;1.63;;
75007;SDS011;63554;48.940;12.050;2023-03-05T19:04:50;2.08;;;1.23;;
75007;SDS011;63554;48.940;12.050;2023-03-05T19:08:52;2.22;;;1.30;;
75007;SDS011;63554;48.940;12.050;2023-03-05T19:12:58;2.13;;;2.03;;
75007;SDS011;63554;48.940;12.050;2023-03-05T19:17:17;1.90;;;1.80;;
75007;SDS011;63554;48.940;12.050;2023-03-05T19:21:19;0.88;;;0.88;;
75007;SDS011;63554;48.940;12.050;2023-03-05T19:25:22;2.88;;;2.22;;
75007;SDS011;63554;48.940;12.050;2023-03-05T19:29:26;2.28;;;1.98;;
75007;SDS011;63554;48.940;12.050;2023-03-05T19:33:39;19.77;;;1.65;;
75007;SDS011;63554;48.940;12.050;2023-03-05T19:37:41;3.03;;;2.22;;
75007;SDS011;63554;48.940;12.050;2023-03-05T19:41:46;2.10;;;1.90;;
75007;SDS011;63554;48.940;12.050;2023-03-05T19:45:50;3.58;;;2.05;;
75007;SDS011;63554;48.940;12.050;2023-03-05T19:49:54;2.10;;;1.50;;
75007;SDS011;63554;48.940;12.050;2023-03-05T19:53:57;1.83;;;1.73;;
75007;SDS011;63554;48.940;12.050;2023-03-05T19:58:00;4.70;;;1.33;;
75007;SDS011;63554;48.940;12.050;2023-03-05T20:02:03;2.50;;;1.88;;
75007;SDS011;63554;48.940;12.050;2023-03-05T20:06:12;2.38;;;2.13;;
75007;SDS011;63554;48.940;12.050;2023-03-05T20:10:17;2.38;;;2.10;;
75007;SDS011;63554;48.940;12.050;2023-03-05T20:14:21;2.20;;;1.83;;
75007;SDS011;63554;48.940;12.050;2023-03-05T20:18:23;5.70;;;2.88;;
75007;SDS011;63554;48.940;12.050;2023-03-05T20:22:31;2.58;;;2.38;;
75007;SDS011;63554;48.940;12.050;2023-03-05T20:26:35;2.65;;;2.28;;
75007;SDS011;63554;48.940;12.050;2023-03-05T20:30:39;5.50;;;2.08;;
75007;SDS011;63554;48.940;12.050;2023-03-05T20:34:44;2.08;;;1.98;;
75007;SDS011;63554;48.940;12.050;2023-03-05T20:38:48;2.40;;;2.03;;
75007;SDS011;63554;48.940;12.050;2023-03-05T20:42:50;2.13;;;2.03;;
75007;SDS011;63554;48.940;12.050;2023-03-05T20:46:53;1.77;;;1.60;;
75007;SDS011;63554;48.940;12.050;2023-03-05T20:51:10;2.25;;;1.80;;
75007;SDS011;63554;48.940;12.050;2023-03-05T20:55:15;1.75;;;1.63;;
75007;SDS011;63554;48.940;12.050;2023-03-05T20:59:18;2.33;;;1.75;;
75007;SDS011;63554;48.940;12.050;2023-03-05T21:03:23;2.97;;;1.90;;
75007;SDS011;63554;48.940;12.050;2023-03-05T21:07:26;2.10;;;1.92;;
75007;SDS011;63554;48.940;12.050;2023-03-05T21:11:31;2.03;;;1.73;;
75007;SDS011;63554;48.940;12.050;2023-03-05T21:15:35;1.83;;;1.73;;
75007;SDS011;63554;48.940;12.050;2023-03-05T21:19:41;2.65;;;2.33;;
75007;SDS011;63554;48.940;12.050;2023-03-05T21:23:44;2.70;;;1.40;;
75007;SDS011;63554;48.940;12.050;2023-03-05T21:27:49;1.38;;;1.13;;
75007;SDS011;63554;48.940;12.050;2023-03-05T21:31:54;2.42;;;2.28;;
75007;SDS011;63554;48.940;12.050;2023-03-05T21:35:58;4.88;;;2.22;;
75007;SDS011;63554;48.940;12.050;2023-03-05T21:40:01;2.30;;;2.10;;
75007;SDS011;63554;48.940;12.050;2023-03-05T21:44:06;1.27;;;0.98;;
75007;SDS011;63554;48.940;12.050;2023-03-05T21:48:11;1.77;;;1.30;;
75007;SDS011;63554;48.940;12.050;2023-03-05T21:52:14;2.38;;;1.88;;
75007;SDS011;63554;48.940;12.050;2023-03-05T21:56:17;2.05;;;1.58;;
75007;SDS011;63554;48.940;12.050;2023-03-05T22:00:26;2.33;;;1.90;;
75007;SDS011;63554;48.940;12.050;2023-03-05T22:04:29;2.90;;;2.25;;
75007;SDS011;63554;48.940;12.050;2023-03-05T22:08:32;2.78;;;2.58;;
75007;SDS011;63554;48.940;12.050;2023-03-05T22:12:35;1.83;;;1.73;;
75007;SDS011;63554;48.940;12.050;2023-03-05T22:16:53;3.38;;;1.95;;
75007;SDS011;63554;48.940;12.050;2023-03-05T22:20:57;3.20;;;2.42;;
75007;SDS011;63554;48.940;12.050;2023-03-05T22:25:01;6.03;;;3.30;;
75007;SDS011;63554;48.940;12.050;2023-03-05T22:29:04;2.25;;;2.15;;
75007;SDS011;63554;48.940;12.050;2023-03-05T22:33:10;4.20;;;2.25;;
75007;SDS011;63554;48.940;12.050;2023-03-05T22:37:13;1.77;;;1.58;;
75007;SDS011;63554;48.940;12.050;2023-03-05T22:41:17;1.95;;;1.85;;
75007;SDS011;63554;48.940;12.050;2023-03-05T22:45:20;9.63;;;3.03;;
75007;SDS011;63554;48.940;12.050;2023-03-05T22:49:24;6.35;;;2.15;;
75007;SDS011;63554;48.940;12.050;2023-03-05T22:53:27;3.58;;;2.45;;
75007;SDS011;63554;48.940;12.050;2023-03-05T22:57:31;2.15;;;1.85;;
75007;SDS011;63554;48.940;12.050;2023-03-05T23:01:34;2.33;;;2.20;;
75007;SDS011;63554;48.940;12.050;2023-03-05T23:05:38;3.83;;;3.17;;
75007;SDS011;63554;48.940;12.050;2023-03-05T23:09:41;1.23;;;1.17;;
75007;SDS011;63554;48.940;12.050;2023-03-05T23:13:44;3.63;;;2.13;;
75007;SDS011;63554;48.940;12.050;2023-03-05T23:17:46;2.63;;;2.40;;
75007;SDS011;63554;48.940;12.050;2023-03-05T23:21:50;3.92;;;1.52;;
75007;SDS011;63554;48.940;12.050;2023-03-05T23:25:53;1.92;;;1.83;;
75007;SDS011;63554;48.940;12.050;2023-03-05T23:29:56;2.50;;;2.30;;
75007;SDS011;63554;48.940;12.050;2023-03-05T23:38:13;1.23;;;1.17;;
75007;SDS011;63554;48.940;12.050;2023-03-05T23:42:15;2.05;;;1.70;;
75007;SDS011;63554;48.940;12.050;2023-03-05T23:46:18;1.55;;;1.45;;
75007;SDS011;63554;48.940;12.050;2023-03-05T23:50:22;2.92;;;1.95;;
75007;SDS011;63554;48.940;12.050;2023-03-05T23:54:27;2.28;;;1.60;;
75007;SDS011;63554;48.940;12.050;2023-03-05T23:58:29;1.73;;;1.63;;
